createdAt,value
2022-09-21T00:01:40.577Z,50.20
2022-09-21T00:04:10.744Z,52.20
2022-09-21T00:06:39.511Z,43.95
2022-09-21T00:09:09.457Z,48.58
2022-09-21T00:11:38.763Z,49.25
2022-09-21T00:42:32.167Z,58.20
2022-09-21T00:45:01.263Z,63.73
2022-09-21T00:47:34.223Z,57.60
2022-09-21T00:50:07.668Z,53.80
2022-09-21T00:52:41.743Z,58.00
2022-09-21T00:55:13.615Z,52.03
2022-09-21T00:57:45.165Z,56.07
2022-09-21T01:00:14.789Z,53.13
2022-09-21T01:02:43.654Z,60.97
2022-09-21T01:05:12.408Z,59.03
2022-09-21T01:07:44.637Z,50.28
2022-09-21T01:10:15.027Z,51.47
2022-09-21T01:13:00.055Z,52.15
2022-09-21T01:15:37.024Z,47.20
2022-09-21T01:18:13.164Z,52.20
2022-09-21T01:21:21.325Z,44.23
2022-09-21T01:24:20.023Z,43.00
2022-09-21T01:27:44.157Z,53.40
2022-09-21T01:30:17.192Z,45.43
2022-09-21T01:32:51.450Z,46.33
2022-09-21T01:35:24.052Z,46.73
2022-09-21T01:37:58.510Z,50.07
2022-09-21T01:40:35.690Z,45.17
2022-09-21T01:43:08.175Z,45.93
2022-09-21T01:45:41.947Z,46.23
2022-09-21T01:48:11.267Z,49.23
2022-09-21T01:50:44.984Z,54.97
2022-09-21T01:53:19.540Z,56.73
2022-09-21T01:55:51.646Z,53.97
2022-09-21T01:58:25.743Z,62.27
2022-09-21T02:00:59.377Z,61.53
2022-09-21T02:03:34.365Z,50.53
2022-09-21T02:06:04.052Z,59.83
2022-09-21T02:08:33.240Z,53.63
2022-09-21T02:11:04.303Z,52.37
2022-09-21T02:13:35.483Z,52.23
2022-09-21T02:16:25.432Z,54.97
2022-09-21T02:19:02.629Z,57.33
2022-09-21T02:21:34.361Z,62.03
2022-09-21T02:24:09.651Z,63.13
2022-09-21T02:26:46.556Z,47.60
2022-09-21T02:29:21.362Z,54.27
2022-09-21T02:31:56.015Z,55.00
2022-09-21T02:34:33.379Z,50.07
2022-09-21T02:37:06.973Z,53.37
2022-09-21T02:39:39.841Z,51.57
2022-09-21T02:42:12.614Z,55.83
2022-09-21T02:44:43.853Z,50.63
2022-09-21T02:47:19.908Z,49.07
2022-09-21T02:49:51.941Z,54.40
2022-09-21T02:52:22.565Z,53.30
2022-09-21T02:54:53.194Z,51.50
2022-09-21T02:57:23.933Z,59.03
2022-09-21T02:59:53.460Z,61.70
2022-09-21T03:02:22.985Z,57.43
2022-09-21T03:04:51.544Z,65.87
2022-09-21T03:07:19.769Z,65.23
2022-09-21T03:09:48.022Z,71.43
2022-09-21T03:12:16.251Z,73.30
2022-09-21T03:14:44.686Z,73.93
2022-09-21T03:17:12.923Z,96.03
2022-09-21T03:19:43.135Z,86.83
2022-09-21T03:22:11.552Z,79.63
2022-09-21T03:24:48.696Z,74.77
2022-09-21T03:27:19.845Z,64.77
2022-09-21T03:29:48.395Z,68.68
2022-09-21T03:32:17.213Z,74.07
2022-09-21T03:34:46.843Z,79.70
2022-09-21T03:37:15.090Z,79.43
2022-09-21T03:39:43.451Z,72.07
2022-09-21T03:42:14.051Z,76.47
2022-09-21T03:44:42.413Z,78.17
2022-09-21T03:47:10.810Z,80.63
2022-09-21T03:49:41.382Z,85.47
2022-09-21T03:52:10.967Z,80.25
2022-09-21T03:54:39.206Z,79.97
2022-09-21T03:57:08.596Z,73.57
2022-09-21T03:59:36.816Z,66.83
2022-09-21T04:02:05.176Z,64.87
2022-09-21T04:04:33.487Z,78.93
2022-09-21T04:07:01.747Z,74.77
2022-09-21T04:09:31.755Z,64.23
2022-09-21T04:12:00.151Z,65.00
2022-09-21T04:14:29.150Z,64.17
2022-09-21T04:16:58.131Z,56.90
2022-09-21T04:19:26.466Z,74.70
2022-09-21T04:21:56.073Z,67.90
2022-09-21T04:24:24.508Z,72.97
2022-09-21T04:26:54.088Z,71.27
2022-09-21T04:29:22.337Z,75.33
2022-09-21T04:31:50.527Z,79.80
2022-09-21T04:34:18.733Z,98.10
2022-09-21T04:36:47.261Z,78.40
2022-09-21T04:39:15.526Z,85.43
2022-09-21T04:41:43.784Z,76.67
2022-09-21T04:44:13.350Z,74.83
2022-09-21T04:46:42.480Z,72.93
2022-09-21T04:49:10.799Z,70.70
2022-09-21T04:51:39.137Z,80.67
2022-09-21T04:54:07.833Z,75.33
2022-09-21T04:56:36.029Z,70.20
2022-09-21T04:59:04.526Z,75.73
2022-09-21T05:01:34.294Z,77.97
2022-09-21T05:04:03.115Z,77.47
2022-09-21T05:06:31.639Z,93.50
2022-09-21T05:09:17.990Z,85.47
2022-09-21T05:11:46.578Z,77.30
2022-09-21T05:14:14.992Z,75.70
2022-09-21T05:16:44.692Z,84.60
2022-09-21T05:19:12.942Z,81.70
2022-09-21T05:21:41.115Z,87.53
2022-09-21T05:24:09.829Z,88.83
2022-09-21T05:26:38.291Z,85.90
2022-09-21T05:29:07.080Z,87.80
2022-09-21T05:31:43.649Z,86.90
2022-09-21T05:34:25.950Z,91.40
2022-09-21T05:37:02.011Z,86.43
2022-09-21T05:39:30.706Z,86.63
2022-09-21T05:41:59.283Z,86.03
2022-09-21T05:44:27.953Z,81.40
2022-09-21T05:47:01.008Z,86.33
2022-09-21T05:49:45.864Z,83.90
2022-09-21T05:52:20.024Z,82.47
2022-09-21T05:55:01.354Z,77.30
2022-09-21T05:57:38.482Z,74.57
2022-09-21T06:00:15.221Z,85.20
2022-09-21T06:03:00.032Z,76.80
2022-09-21T06:05:30.139Z,79.90
2022-09-21T06:07:58.516Z,77.30
2022-09-21T06:10:36.039Z,88.57
2022-09-21T06:13:04.297Z,100.83
2022-09-21T06:15:35.180Z,100.90
2022-09-21T06:18:03.421Z,91.23
2022-09-21T06:20:33.026Z,90.03
2022-09-21T06:23:04.279Z,86.20
2022-09-21T06:25:32.571Z,88.13
2022-09-21T06:28:04.453Z,90.93
2022-09-21T06:30:34.677Z,90.30
2022-09-21T06:33:03.522Z,90.40
2022-09-21T06:35:34.833Z,81.25
2022-09-21T06:38:04.719Z,83.72
2022-09-21T06:40:35.397Z,95.03
2022-09-21T06:43:05.733Z,95.05
2022-09-21T06:45:34.443Z,95.13
2022-09-21T06:48:03.107Z,112.43
2022-09-21T06:50:32.636Z,123.45
2022-09-21T06:53:01.288Z,122.20
2022-09-21T06:55:30.042Z,113.57
2022-09-21T06:58:02.937Z,119.10
2022-09-21T07:00:31.682Z,111.32
2022-09-21T07:02:59.966Z,119.88
2022-09-21T07:05:28.486Z,130.98
2022-09-21T07:08:00.439Z,117.45
2022-09-21T07:10:28.765Z,112.88
2022-09-21T07:12:57.151Z,99.80
2022-09-21T07:15:29.997Z,109.75
2022-09-21T07:18:05.945Z,92.70
2022-09-21T07:20:34.371Z,90.55
2022-09-21T07:23:11.568Z,76.55
2022-09-21T07:25:40.058Z,74.63
2022-09-21T07:28:08.386Z,78.47
2022-09-21T07:30:37.540Z,63.80
2022-09-21T07:33:06.423Z,52.25
2022-09-21T07:35:35.745Z,52.55
2022-09-21T07:38:09.102Z,43.00
2022-09-21T07:40:37.415Z,39.17
2022-09-21T07:43:06.560Z,36.80
2022-09-21T07:45:34.980Z,29.08
2022-09-21T07:48:06.741Z,31.67
2022-09-21T07:50:35.266Z,27.23
2022-09-21T07:53:05.536Z,30.75
2022-09-21T07:55:35.192Z,27.55
2022-09-21T07:58:21.001Z,20.42
2022-09-21T08:00:49.432Z,19.60
2022-09-21T08:03:17.669Z,16.77
2022-09-21T08:05:45.948Z,19.33
2022-09-21T08:08:15.572Z,24.00
2022-09-21T08:10:45.227Z,11.48
2022-09-21T08:13:13.466Z,6.20
2022-09-21T08:15:49.755Z,9.38
2022-09-21T08:18:18.806Z,13.60
2022-09-21T08:20:55.753Z,7.35
2022-09-21T08:23:24.345Z,8.25
2022-09-21T08:25:54.221Z,4.25
2022-09-21T08:28:22.446Z,7.85
2022-09-21T08:30:50.686Z,6.22
2022-09-21T08:33:19.120Z,6.10
2022-09-21T08:35:53.750Z,4.32
2022-09-21T08:38:22.385Z,5.05
2022-09-21T08:40:52.327Z,2.30
2022-09-21T08:43:31.471Z,2.85
2022-09-21T08:46:01.857Z,1.88
2022-09-21T08:48:40.188Z,2.00
2022-09-21T08:51:12.086Z,2.95
2022-09-21T08:53:42.458Z,5.68
2022-09-21T08:56:12.088Z,3.50
2022-09-21T08:58:42.175Z,4.13
2022-09-21T09:01:30.726Z,3.92
2022-09-21T09:04:19.600Z,8.43
2022-09-21T09:06:53.630Z,1.75
2022-09-21T09:09:37.532Z,3.80
2022-09-21T09:12:21.663Z,3.33
2022-09-21T09:15:24.425Z,7.20
2022-09-21T09:18:00.866Z,2.63
2022-09-21T09:20:33.749Z,1.55
2022-09-21T09:23:10.784Z,2.10
2022-09-21T09:25:42.862Z,1.23
2022-09-21T09:28:30.226Z,5.68
2022-09-21T09:31:03.580Z,2.40
2022-09-21T09:33:45.045Z,40.13
2022-09-21T09:36:14.483Z,4.57
2022-09-21T09:38:49.144Z,0.73
2022-09-21T09:41:50.679Z,1.35
2022-09-21T09:44:50.178Z,2.45
2022-09-21T09:47:30.679Z,2.95
2022-09-21T09:50:06.479Z,2.22
2022-09-21T09:52:35.205Z,4.70
2022-09-21T09:55:16.815Z,2.50
2022-09-21T09:57:45.338Z,3.70
2022-09-21T10:00:16.460Z,3.80
2022-09-21T10:02:51.164Z,2.83
2022-09-21T10:05:25.023Z,2.60
2022-09-21T10:07:54.353Z,3.38
2022-09-21T10:10:33.481Z,3.10
2022-09-21T10:13:12.555Z,4.78
2022-09-21T10:15:49.968Z,4.28
2022-09-21T10:18:26.539Z,1.35
2022-09-21T10:21:01.350Z,5.68
2022-09-21T10:23:31.533Z,1.67
2022-09-21T10:26:03.286Z,2.00
2022-09-21T10:28:32.226Z,2.75
2022-09-21T10:31:23.791Z,2.25
2022-09-21T10:33:56.358Z,1.90
2022-09-21T10:36:36.739Z,3.38
2022-09-21T10:39:20.139Z,4.65
2022-09-21T10:41:53.892Z,2.33
2022-09-21T10:44:26.788Z,4.00
2022-09-21T10:49:28.380Z,4.32
2022-09-21T10:51:59.343Z,0.95
2022-09-21T10:54:30.494Z,3.78
2022-09-21T10:57:02.682Z,5.55
2022-09-21T10:59:32.796Z,2.30
2022-09-21T11:02:03.167Z,2.67
2022-09-21T11:04:42.777Z,2.35
2022-09-21T11:07:17.525Z,3.58
2022-09-21T11:09:54.505Z,11.00
2022-09-21T11:12:37.115Z,3.97
2022-09-21T11:15:17.311Z,17.85
2022-09-21T11:17:50.855Z,2.80
2022-09-21T11:20:32.417Z,2.22
2022-09-21T11:23:06.494Z,1.70
2022-09-21T11:25:42.324Z,1.85
2022-09-21T11:28:20.631Z,2.08
2022-09-21T11:31:26.712Z,0.95
2022-09-21T11:34:22.185Z,2.72
2022-09-21T11:37:01.961Z,4.18
2022-09-21T11:39:39.390Z,1.08
2022-09-21T11:42:20.444Z,2.42
2022-09-21T11:44:55.932Z,3.70
2022-09-21T11:47:47.996Z,1.90
2022-09-21T11:50:33.969Z,1.88
2022-09-21T11:53:16.311Z,1.27
2022-09-21T11:56:01.960Z,1.80
2022-09-21T11:58:39.770Z,1.77
2022-09-21T12:01:27.455Z,2.90
2022-09-21T12:04:09.252Z,2.97
2022-09-21T12:06:51.036Z,1.25
2022-09-21T12:09:37.321Z,3.08
2022-09-21T12:12:11.187Z,1.80
2022-09-21T12:14:47.963Z,0.95
2022-09-21T12:17:25.509Z,1.65
2022-09-21T12:20:03.012Z,3.53
2022-09-21T12:22:34.696Z,1.27
2022-09-21T12:25:14.729Z,2.65
2022-09-21T12:27:47.536Z,3.15
2022-09-21T12:30:18.780Z,0.95
2022-09-21T12:32:55.716Z,3.50
2022-09-21T12:35:33.667Z,1.63
2022-09-21T12:38:10.507Z,2.58
2022-09-21T12:40:47.636Z,1.52
2022-09-21T12:43:27.597Z,2.05
2022-09-21T12:46:02.990Z,5.40
2022-09-21T12:48:39.038Z,1.40
2022-09-21T12:51:15.605Z,0.95
2022-09-21T12:53:50.870Z,0.98
2022-09-21T12:56:33.396Z,2.47
2022-09-21T12:59:19.332Z,1.27
2022-09-21T13:01:57.190Z,1.55
2022-09-21T13:05:02.368Z,3.13
2022-09-21T13:07:45.351Z,2.85
2022-09-21T13:10:22.125Z,2.15
2022-09-21T13:12:56.399Z,4.80
2022-09-21T13:15:28.822Z,5.18
2022-09-21T13:18:02.318Z,3.75
2022-09-21T13:20:37.851Z,2.20
2022-09-21T13:23:06.763Z,4.30
2022-09-21T13:25:37.892Z,1.60
2022-09-21T13:28:24.035Z,2.10
2022-09-21T13:31:47.442Z,0.93
2022-09-21T13:34:24.825Z,12.27
2022-09-21T13:37:16.890Z,6.70
2022-09-21T13:39:46.088Z,1.75
2022-09-21T13:42:48.271Z,0.40
2022-09-21T13:45:53.145Z,1.08
2022-09-21T13:48:27.257Z,3.33
2022-09-21T13:50:59.631Z,3.00
2022-09-21T13:53:35.539Z,2.38
2022-09-21T13:56:09.914Z,8.48
2022-09-21T13:58:44.649Z,3.97
2022-09-21T14:01:45.033Z,1.08
2022-09-21T14:04:21.466Z,3.55
2022-09-21T14:06:52.352Z,2.80
2022-09-21T14:09:25.703Z,1.40
2022-09-21T14:11:59.884Z,2.78
2022-09-21T14:14:32.861Z,1.70
2022-09-21T14:17:03.776Z,1.27
2022-09-21T14:20:07.564Z,3.92
2022-09-21T14:22:38.895Z,1.80
2022-09-21T14:25:32.419Z,1.35
2022-09-21T14:28:11.984Z,1.65
2022-09-21T14:30:42.808Z,1.60
2022-09-21T14:33:23.660Z,1.30
2022-09-21T14:35:53.103Z,0.30
2022-09-21T14:38:25.271Z,0.47
2022-09-21T14:40:57.201Z,2.80
2022-09-21T14:43:29.755Z,2.38
2022-09-21T14:46:32.259Z,3.13
2022-09-21T14:49:15.089Z,2.25
2022-09-21T14:52:04.326Z,5.07
2022-09-21T14:54:49.446Z,1.50
2022-09-21T14:57:37.324Z,1.65
2022-09-21T15:00:21.132Z,2.92
2022-09-21T15:02:57.488Z,1.80
2022-09-21T15:05:34.277Z,2.13
2022-09-21T15:08:42.352Z,3.90
2022-09-21T15:11:17.745Z,4.03
2022-09-21T15:14:15.699Z,1.83
2022-09-21T15:16:47.255Z,0.38
2022-09-21T15:19:27.109Z,0.93
2022-09-21T15:21:58.282Z,2.35
2022-09-21T15:24:29.583Z,0.93
2022-09-21T15:27:06.945Z,1.50
2022-09-21T15:29:35.793Z,0.80
2022-09-21T15:32:04.760Z,0.80
2022-09-21T15:34:33.143Z,2.13
2022-09-21T15:37:13.520Z,1.15
2022-09-21T15:39:41.847Z,2.38
2022-09-21T15:42:23.143Z,1.17
2022-09-21T15:44:55.387Z,1.48
2022-09-21T15:47:26.042Z,0.75
2022-09-21T15:49:56.964Z,1.17
2022-09-21T15:52:33.027Z,1.92
2022-09-21T15:55:09.356Z,1.92
2022-09-21T15:57:40.655Z,4.22
2022-09-21T16:00:20.028Z,3.38
2022-09-21T16:03:07.482Z,2.33
2022-09-21T16:05:45.674Z,1.73
2022-09-21T16:08:30.348Z,1.90
2022-09-21T16:11:17.339Z,2.15
2022-09-21T16:14:04.581Z,1.40
2022-09-21T16:16:33.408Z,0.95
2022-09-21T16:19:01.709Z,0.75
2022-09-21T16:21:33.841Z,2.28
2022-09-21T16:24:17.960Z,2.53
2022-09-21T16:26:57.770Z,1.05
2022-09-21T16:29:27.741Z,4.43
2022-09-21T16:32:23.431Z,1.17
2022-09-21T16:34:53.199Z,3.13
2022-09-21T16:37:29.356Z,4.07
2022-09-21T16:40:00.683Z,2.40
2022-09-21T16:42:32.876Z,3.13
2022-09-21T16:45:01.999Z,1.23
2022-09-21T16:47:30.600Z,2.42
2022-09-21T16:50:01.853Z,2.13
2022-09-21T16:52:31.572Z,0.77
2022-09-21T16:55:01.229Z,2.78
2022-09-21T16:57:29.531Z,2.28
2022-09-21T16:59:58.113Z,2.20
2022-09-21T17:02:26.545Z,4.88
2022-09-21T17:04:54.822Z,1.55
2022-09-21T17:07:23.006Z,6.07
2022-09-21T17:09:51.237Z,1.98
2022-09-21T17:12:22.172Z,1.27
2022-09-21T17:14:51.726Z,1.08
2022-09-21T17:17:23.626Z,2.97
2022-09-21T17:19:54.292Z,1.75
2022-09-21T17:22:23.187Z,2.00
2022-09-21T17:24:54.001Z,2.90
2022-09-21T17:27:26.709Z,1.27
2022-09-21T17:29:56.484Z,5.22
2022-09-21T17:32:25.634Z,2.20
2022-09-21T17:34:58.881Z,0.22
2022-09-21T17:37:27.315Z,0.65
2022-09-21T17:39:55.651Z,4.13
2022-09-21T17:42:26.202Z,1.60
2022-09-21T17:45:12.468Z,2.42
2022-09-21T17:47:41.811Z,2.45
2022-09-21T17:50:23.069Z,3.08
2022-09-21T17:53:09.672Z,5.30
2022-09-21T17:55:39.158Z,6.10
2022-09-21T17:58:25.158Z,5.65
2022-09-21T18:01:01.374Z,3.80
2022-09-21T18:03:31.276Z,2.85
2022-09-21T18:06:00.836Z,3.88
2022-09-21T18:08:30.622Z,2.17
2022-09-21T18:11:07.563Z,4.03
2022-09-21T18:13:49.136Z,2.03
2022-09-21T18:16:30.882Z,2.38
2022-09-21T18:19:07.495Z,2.03
2022-09-21T18:21:41.826Z,3.85
2022-09-21T18:24:20.291Z,3.20
2022-09-21T18:26:50.861Z,4.78
2022-09-21T18:29:39.351Z,1.00
2022-09-21T18:32:28.468Z,1.73
2022-09-21T18:35:29.130Z,1.52
2022-09-21T18:38:10.084Z,6.20
2022-09-21T18:40:46.878Z,1.80
2022-09-21T18:43:28.092Z,4.43
2022-09-21T18:46:02.826Z,3.78
2022-09-21T18:48:52.602Z,3.35
2022-09-21T18:51:28.657Z,5.30
2022-09-21T18:53:58.561Z,4.30
2022-09-21T18:56:29.282Z,9.80
2022-09-21T18:58:58.310Z,4.90
2022-09-21T19:01:33.051Z,4.47
2022-09-21T19:04:02.273Z,7.55
2022-09-21T19:06:42.610Z,8.80
2022-09-21T19:09:21.226Z,6.93
2022-09-21T19:11:57.478Z,4.00
2022-09-21T19:14:34.634Z,10.40
2022-09-21T19:17:20.799Z,4.03
2022-09-21T19:19:59.668Z,4.00
2022-09-21T19:22:39.689Z,4.63
2022-09-21T19:25:16.763Z,3.35
2022-09-21T19:27:52.923Z,3.05
2022-09-21T19:30:21.579Z,1.73
2022-09-21T19:32:53.153Z,1.73
2022-09-21T19:35:24.675Z,2.65
2022-09-21T19:37:54.332Z,2.45
2022-09-21T19:40:25.568Z,1.23
2022-09-21T19:43:14.217Z,4.30
2022-09-21T19:45:52.377Z,6.20
2022-09-21T19:48:26.827Z,4.53
2022-09-21T19:50:57.356Z,5.40
2022-09-21T19:53:43.662Z,4.38
2022-09-21T19:56:32.208Z,6.60
2022-09-21T19:59:20.553Z,7.35
2022-09-21T20:01:53.178Z,7.35
2022-09-21T20:04:28.035Z,9.23
2022-09-21T20:07:03.249Z,5.18
2022-09-21T20:09:38.234Z,14.15
2022-09-21T20:12:15.255Z,8.85
2022-09-21T20:14:49.394Z,6.53
2022-09-21T20:17:22.188Z,7.68
2022-09-21T20:19:58.046Z,7.63
2022-09-21T20:22:34.778Z,3.28
2022-09-21T20:25:08.029Z,6.88
2022-09-21T20:27:40.804Z,6.60
2022-09-21T20:30:11.881Z,9.73
2022-09-21T20:32:43.014Z,9.13
2022-09-21T20:35:17.216Z,8.95
2022-09-21T20:37:47.015Z,4.28
2022-09-21T20:40:16.395Z,4.57
2022-09-21T20:42:45.111Z,8.05
2022-09-21T20:45:14.678Z,7.28
2022-09-21T20:47:42.950Z,7.72
2022-09-21T20:50:13.705Z,7.95
2022-09-21T20:52:43.183Z,8.38
2022-09-21T20:55:14.001Z,7.35
2022-09-21T20:57:42.474Z,11.82
2022-09-21T21:00:13.230Z,11.52
2022-09-21T21:02:42.096Z,8.05
2022-09-21T21:05:11.499Z,9.98
2022-09-21T21:07:42.531Z,7.63
2022-09-21T21:10:14.584Z,10.20
2022-09-21T21:12:43.613Z,9.65
2022-09-21T21:15:13.340Z,10.90
2022-09-21T21:17:42.811Z,10.13
2022-09-21T21:20:11.696Z,11.38
2022-09-21T21:22:42.228Z,9.30
2022-09-21T21:25:11.124Z,10.43
2022-09-21T21:27:39.370Z,7.82
2022-09-21T21:30:09.454Z,9.38
2022-09-21T21:32:38.319Z,11.55
2022-09-21T21:35:08.031Z,9.77
2022-09-21T21:37:36.229Z,7.35
2022-09-21T21:40:06.946Z,9.88
2022-09-21T21:42:35.215Z,8.95
2022-09-21T21:45:03.411Z,7.15
2022-09-21T21:47:40.509Z,12.00
2022-09-21T21:50:11.375Z,14.27
2022-09-21T21:52:40.740Z,7.38
2022-09-21T21:55:11.027Z,10.80
2022-09-21T21:57:39.236Z,8.02
2022-09-21T22:00:10.148Z,12.57
2022-09-21T22:02:38.505Z,10.85
2022-09-21T22:05:07.701Z,15.20
2022-09-21T22:07:35.926Z,11.77
2022-09-21T22:10:04.337Z,11.35
2022-09-21T22:12:34.530Z,10.10
2022-09-21T22:15:03.782Z,18.27
2022-09-21T22:17:32.268Z,11.63
2022-09-21T22:20:00.459Z,11.98
2022-09-21T22:22:28.682Z,12.00
2022-09-21T22:24:56.904Z,15.68
2022-09-21T22:27:25.719Z,16.77
2022-09-21T22:29:55.268Z,16.70
2022-09-21T22:32:23.477Z,14.88
2022-09-21T22:34:51.690Z,19.02
2022-09-21T22:37:21.067Z,18.20
2022-09-21T22:39:49.300Z,14.23
2022-09-21T22:42:17.548Z,16.75
2022-09-21T22:44:45.842Z,24.92
2022-09-21T22:47:15.461Z,16.75
2022-09-21T22:49:43.678Z,17.45
2022-09-21T22:52:11.936Z,20.85
2022-09-21T22:54:40.166Z,21.52
2022-09-21T22:57:08.445Z,17.05
2022-09-21T22:59:36.697Z,18.10
2022-09-21T23:02:08.510Z,19.30
2022-09-21T23:04:38.158Z,20.25
2022-09-21T23:07:06.432Z,22.10
2022-09-21T23:09:34.655Z,20.17
2022-09-21T23:12:03.221Z,29.67
2022-09-21T23:14:31.458Z,22.65
2022-09-21T23:16:59.720Z,26.40
2022-09-21T23:19:27.959Z,23.08
2022-09-21T23:21:57.660Z,23.42
2022-09-21T23:24:25.882Z,24.55
2022-09-21T23:26:54.295Z,29.27
2022-09-21T23:29:22.548Z,26.08
2022-09-21T23:31:51.107Z,29.17
2022-09-21T23:34:19.462Z,26.83
2022-09-21T23:36:47.749Z,34.42
2022-09-21T23:39:17.452Z,27.63
2022-09-21T23:44:14.821Z,27.02
2022-09-21T23:46:43.210Z,28.70
2022-09-21T23:49:11.918Z,34.13
2022-09-21T23:51:40.874Z,33.65
2022-09-21T23:54:09.308Z,34.13
2022-09-21T23:56:39.014Z,33.90
2022-09-21T23:59:07.197Z,36.70
